createdAt,value
2023-01-03T00:02:12.652Z,5.35
2023-01-03T00:06:32.544Z,4.63
2023-01-03T00:10:53.088Z,4.40
2023-01-03T00:15:14.946Z,5.88
2023-01-03T00:19:36.938Z,6.20
2023-01-03T00:23:55.002Z,6.27
2023-01-03T00:28:14.846Z,6.28
2023-01-03T00:32:34.308Z,5.57
2023-01-03T00:36:52.947Z,4.75
2023-01-03T00:41:12.434Z,5.30
2023-01-03T00:45:35.433Z,6.18
2023-01-03T00:49:55.614Z,7.55
2023-01-03T00:54:14.984Z,5.77
2023-01-03T00:58:35.639Z,6.32
2023-01-03T01:02:57.678Z,3.20
2023-01-03T01:07:17.295Z,6.70
2023-01-03T01:11:36.088Z,6.03
2023-01-03T01:15:55.498Z,6.68
2023-01-03T01:20:17.590Z,6.13
2023-01-03T01:24:38.551Z,6.60
2023-01-03T01:28:59.682Z,5.85
2023-01-03T01:33:17.683Z,6.03
2023-01-03T01:37:37.280Z,6.53
2023-01-03T01:42:31.373Z,7.03
2023-01-03T01:46:49.735Z,8.60
2023-01-03T01:51:09.616Z,6.67
2023-01-03T01:55:32.823Z,5.85
2023-01-03T01:59:52.163Z,5.53
2023-01-03T02:04:16.307Z,7.38
2023-01-03T02:08:34.247Z,7.67
2023-01-03T02:13:08.702Z,5.55
2023-01-03T02:17:38.584Z,6.25
2023-01-03T02:22:25.785Z,5.73
2023-01-03T02:27:00.165Z,5.10
2023-01-03T02:31:25.539Z,6.28
2023-01-03T02:35:55.843Z,5.47
2023-01-03T02:40:21.595Z,4.90
2023-01-03T02:44:45.364Z,6.57
2023-01-03T02:49:10.178Z,5.05
2023-01-03T02:53:32.329Z,7.57
2023-01-03T02:57:53.651Z,5.40
2023-01-03T03:02:13.368Z,6.72
2023-01-03T03:06:40.156Z,6.90
2023-01-03T03:11:17.387Z,6.28
2023-01-03T03:15:40.704Z,8.05
2023-01-03T03:20:17.551Z,6.57
2023-01-03T03:24:51.649Z,6.85
2023-01-03T03:29:17.097Z,6.72
2023-01-03T03:33:42.436Z,6.22
2023-01-03T03:38:04.461Z,5.87
2023-01-03T03:42:47.006Z,6.22
2023-01-03T03:47:14.118Z,4.88
2023-01-03T03:51:37.609Z,5.27
2023-01-03T03:56:00.040Z,4.90
2023-01-03T04:00:24.004Z,6.03
2023-01-03T04:04:45.788Z,6.40
2023-01-03T04:09:03.389Z,9.90
2023-01-03T04:13:21.037Z,7.82
2023-01-03T04:17:40.557Z,10.77
2023-01-03T04:22:00.111Z,8.97
2023-01-03T04:26:18.630Z,7.90
2023-01-03T04:30:36.353Z,6.43
2023-01-03T04:34:55.939Z,6.80
2023-01-03T04:39:15.517Z,6.18
2023-01-03T04:43:50.651Z,6.57
2023-01-03T04:48:10.115Z,7.73
2023-01-03T04:52:30.479Z,8.88
2023-01-03T04:56:49.236Z,8.18
2023-01-03T05:01:09.201Z,8.32
2023-01-03T05:05:28.712Z,7.33
2023-01-03T05:09:48.288Z,8.05
2023-01-03T05:14:12.568Z,8.27
2023-01-03T05:18:32.213Z,9.50
2023-01-03T05:23:07.011Z,10.05
2023-01-03T05:27:28.428Z,9.65
2023-01-03T05:31:47.623Z,8.57
2023-01-03T05:36:05.818Z,8.55
2023-01-03T05:40:23.526Z,8.52
2023-01-03T05:44:43.289Z,9.02
2023-01-03T05:49:02.748Z,6.97
2023-01-03T05:53:21.052Z,8.63
2023-01-03T05:57:39.050Z,8.05
2023-01-03T06:01:58.588Z,9.27
2023-01-03T06:06:18.276Z,8.43
2023-01-03T06:10:36.653Z,8.43
2023-01-03T06:14:54.304Z,9.43
2023-01-03T06:19:14.095Z,9.20
2023-01-03T06:23:37.093Z,9.25
2023-01-03T06:27:54.606Z,9.73
2023-01-03T06:32:12.680Z,10.17
2023-01-03T06:36:34.453Z,9.23
2023-01-03T06:40:51.752Z,9.75
2023-01-03T06:45:30.131Z,10.37
2023-01-03T06:50:06.707Z,9.85
2023-01-03T06:54:29.227Z,9.95
2023-01-03T06:58:47.605Z,11.83
2023-01-03T07:03:11.124Z,10.27
2023-01-03T07:07:32.391Z,10.13
2023-01-03T07:11:52.579Z,12.35
2023-01-03T07:16:15.271Z,10.97
2023-01-03T07:20:32.817Z,12.93
2023-01-03T07:24:51.068Z,11.43
2023-01-03T07:29:11.995Z,12.90
2023-01-03T07:33:30.227Z,12.75
2023-01-03T07:37:47.988Z,14.88
2023-01-03T07:42:23.711Z,15.27
2023-01-03T07:46:44.048Z,13.02
2023-01-03T07:51:04.043Z,13.38
2023-01-03T07:55:21.676Z,14.52
2023-01-03T07:59:42.399Z,13.60
2023-01-03T08:04:02.211Z,14.63
2023-01-03T08:08:22.076Z,11.95
2023-01-03T08:12:57.215Z,12.13
2023-01-03T08:17:17.096Z,12.68
2023-01-03T08:21:37.253Z,13.80
2023-01-03T08:26:02.150Z,13.90
2023-01-03T08:30:20.508Z,11.60
2023-01-03T08:34:41.821Z,12.52
2023-01-03T08:39:03.763Z,10.70
2023-01-03T08:43:23.390Z,11.50
2023-01-03T08:47:42.920Z,11.88
2023-01-03T08:52:02.502Z,12.15
2023-01-03T08:56:22.149Z,13.37
2023-01-03T09:00:41.691Z,12.45
2023-01-03T09:05:00.779Z,13.55
2023-01-03T09:09:20.858Z,11.90
2023-01-03T09:13:41.057Z,11.98
2023-01-03T09:17:59.912Z,11.30
2023-01-03T09:22:18.308Z,8.77
2023-01-03T09:26:36.210Z,10.20
2023-01-03T09:30:56.152Z,10.20
2023-01-03T09:35:15.187Z,8.15
2023-01-03T09:39:33.303Z,7.90
2023-01-03T09:43:59.095Z,10.57
2023-01-03T09:48:23.082Z,8.82
2023-01-03T09:53:02.793Z,8.67
2023-01-03T09:57:45.584Z,6.85
2023-01-03T10:02:48.781Z,6.25
2023-01-03T10:07:19.341Z,6.85
2023-01-03T10:11:45.122Z,6.47
2023-01-03T10:16:12.695Z,6.30
2023-01-03T10:20:47.117Z,5.70
2023-01-03T10:25:13.399Z,8.97
2023-01-03T10:29:31.694Z,6.68
2023-01-03T10:33:51.028Z,6.10
2023-01-03T10:38:10.874Z,7.53
2023-01-03T10:42:33.928Z,7.50
2023-01-03T10:46:55.243Z,8.82
2023-01-03T10:51:29.395Z,4.85
2023-01-03T10:55:50.500Z,5.23
2023-01-03T11:00:32.143Z,4.63
2023-01-03T11:05:14.835Z,6.28
2023-01-03T11:09:50.421Z,6.40
2023-01-03T11:14:29.382Z,6.25
2023-01-03T11:19:01.665Z,5.93
2023-01-03T11:23:28.169Z,5.10
2023-01-03T11:28:06.910Z,6.07
2023-01-03T11:32:44.246Z,6.53
2023-01-03T11:37:14.157Z,5.88
2023-01-03T11:41:54.583Z,5.63
2023-01-03T11:46:36.309Z,5.90
2023-01-03T11:51:09.816Z,5.20
2023-01-03T11:55:58.024Z,8.90
2023-01-03T12:00:26.927Z,5.28
2023-01-03T12:04:58.680Z,4.88
2023-01-03T12:09:24.830Z,5.67
2023-01-03T12:13:51.754Z,7.43
2023-01-03T12:18:21.906Z,5.50
2023-01-03T12:22:45.548Z,8.93
2023-01-03T12:27:11.069Z,7.57
2023-01-03T12:31:35.342Z,11.70
2023-01-03T12:36:01.084Z,8.15
2023-01-03T12:40:27.879Z,5.40
2023-01-03T12:44:47.508Z,10.77
2023-01-03T12:49:13.569Z,13.40
2023-01-03T12:53:39.981Z,6.75
2023-01-03T12:58:39.539Z,9.75
2023-01-03T13:03:04.383Z,6.10
2023-01-03T13:07:27.976Z,5.22
2023-01-03T13:11:51.640Z,5.45
2023-01-03T13:16:30.707Z,4.97
2023-01-03T13:20:50.304Z,5.90
2023-01-03T13:25:30.800Z,8.77
2023-01-03T13:29:58.774Z,5.68
2023-01-03T13:34:33.814Z,5.23
2023-01-03T13:38:52.696Z,6.68
2023-01-03T13:43:20.299Z,5.57
2023-01-03T13:47:41.787Z,5.23
2023-01-03T13:52:07.125Z,5.57
2023-01-03T13:56:33.293Z,7.38
2023-01-03T14:01:05.815Z,7.90
2023-01-03T14:06:03.157Z,5.43
2023-01-03T14:10:41.364Z,7.40
2023-01-03T14:15:24.971Z,6.63
2023-01-03T14:19:54.595Z,6.57
2023-01-03T14:24:23.681Z,7.13
2023-01-03T14:28:50.350Z,7.32
2023-01-03T14:33:17.999Z,7.00
2023-01-03T14:37:47.804Z,6.40
2023-01-03T14:42:17.505Z,9.25
2023-01-03T14:46:49.564Z,6.83
2023-01-03T14:51:14.433Z,6.20
2023-01-03T14:55:40.151Z,6.97
2023-01-03T15:00:05.642Z,6.28
2023-01-03T15:04:25.437Z,6.50
2023-01-03T15:08:45.869Z,8.57
2023-01-03T15:13:19.199Z,7.35
2023-01-03T15:17:39.335Z,8.87
2023-01-03T15:22:14.881Z,6.80
2023-01-03T15:26:40.843Z,6.85
2023-01-03T15:31:22.735Z,6.03
2023-01-03T15:35:51.053Z,7.28
2023-01-03T15:40:15.646Z,8.80
2023-01-03T15:44:39.905Z,8.25
2023-01-03T15:49:07.318Z,13.07
2023-01-03T15:53:43.162Z,12.20
2023-01-03T15:58:08.741Z,11.85
2023-01-03T16:02:33.038Z,11.20
2023-01-03T16:06:58.743Z,10.98
2023-01-03T16:11:33.424Z,11.00
2023-01-03T16:16:00.367Z,12.17
2023-01-03T16:20:24.458Z,14.98
2023-01-03T16:24:52.932Z,13.10
2023-01-03T16:29:17.251Z,13.55
2023-01-03T16:33:42.448Z,9.80
2023-01-03T16:38:06.355Z,10.80
2023-01-03T16:42:31.614Z,10.35
2023-01-03T16:46:55.310Z,13.23
2023-01-03T16:51:22.106Z,10.13
2023-01-03T16:55:47.330Z,13.15
2023-01-03T17:00:19.116Z,12.33
2023-01-03T17:04:43.054Z,13.23
2023-01-03T17:09:12.267Z,14.25
2023-01-03T17:13:38.897Z,12.50
2023-01-03T17:18:04.423Z,11.73
2023-01-03T17:22:28.147Z,10.70
2023-01-03T17:26:53.046Z,8.60
2023-01-03T17:31:18.090Z,9.83
2023-01-03T17:35:44.715Z,8.73
2023-01-03T17:40:19.276Z,10.30
2023-01-03T17:44:44.364Z,7.63
2023-01-03T17:49:26.998Z,8.93
2023-01-03T17:53:53.013Z,7.30
2023-01-03T17:58:19.940Z,7.00
2023-01-03T18:02:44.430Z,7.90
2023-01-03T18:07:10.646Z,7.90
2023-01-03T18:11:36.088Z,5.63
2023-01-03T18:15:59.922Z,8.00
2023-01-03T18:20:23.825Z,7.18
2023-01-03T18:24:47.746Z,6.82
2023-01-03T18:29:15.763Z,8.23
2023-01-03T18:33:39.633Z,7.72
2023-01-03T18:38:03.594Z,8.00
2023-01-03T18:42:45.544Z,6.95
2023-01-03T18:47:13.258Z,9.10
2023-01-03T18:51:37.051Z,7.50
2023-01-03T18:56:02.434Z,7.43
2023-01-03T19:00:27.795Z,6.73
2023-01-03T19:04:53.052Z,6.15
2023-01-03T19:09:22.030Z,7.70
2023-01-03T19:13:51.726Z,8.47
2023-01-03T19:18:16.025Z,7.03
2023-01-03T19:22:42.389Z,8.55
2023-01-03T19:27:12.413Z,8.75
2023-01-03T19:31:42.774Z,7.33
2023-01-03T19:36:15.067Z,5.80
2023-01-03T19:40:41.888Z,6.45
2023-01-03T19:45:15.676Z,7.47
2023-01-03T19:49:39.494Z,9.25
2023-01-03T19:54:03.248Z,7.10
2023-01-03T19:58:31.233Z,7.60
2023-01-03T20:02:58.425Z,6.82
2023-01-03T20:07:22.441Z,8.43
2023-01-03T20:11:53.987Z,8.48
2023-01-03T20:16:19.275Z,7.47
2023-01-03T20:20:43.163Z,8.20
2023-01-03T20:25:14.301Z,7.03
2023-01-03T20:29:38.072Z,7.40
2023-01-03T20:34:06.323Z,7.07
2023-01-03T20:38:32.164Z,9.90
2023-01-03T20:42:57.397Z,9.47
2023-01-03T20:47:26.015Z,9.82
2023-01-03T20:51:51.880Z,9.10
2023-01-03T20:56:16.014Z,8.88
2023-01-03T21:00:40.442Z,7.50
2023-01-03T21:05:04.717Z,9.90
2023-01-03T21:09:35.395Z,7.90
2023-01-03T21:14:00.850Z,10.20
2023-01-03T21:18:24.994Z,13.82
2023-01-03T21:22:51.875Z,10.73
2023-01-03T21:27:17.183Z,9.43
2023-01-03T21:31:46.945Z,10.20
2023-01-03T21:36:19.252Z,8.05
2023-01-03T21:40:49.754Z,8.77
2023-01-03T21:45:15.558Z,8.23
2023-01-03T21:49:39.569Z,9.43
2023-01-03T21:54:06.591Z,7.72
2023-01-03T21:58:34.419Z,9.50
2023-01-03T22:03:17.900Z,7.10
2023-01-03T22:07:42.121Z,9.15
2023-01-03T22:12:06.408Z,6.70
2023-01-03T22:16:30.854Z,9.45
2023-01-03T22:21:02.377Z,10.43
2023-01-03T22:25:31.729Z,21.60
2023-01-03T22:30:06.229Z,11.80
2023-01-03T22:34:36.042Z,9.85
2023-01-03T22:39:04.509Z,9.25
2023-01-03T22:43:38.641Z,10.87
2023-01-03T22:48:06.861Z,10.13
2023-01-03T22:52:31.189Z,9.45
2023-01-03T22:56:58.360Z,10.27
2023-01-03T23:01:28.645Z,8.55
2023-01-03T23:05:52.758Z,8.07
2023-01-03T23:10:16.667Z,8.55
2023-01-03T23:14:44.368Z,8.90
2023-01-03T23:19:16.940Z,7.70
2023-01-03T23:23:40.719Z,8.68
2023-01-03T23:28:07.704Z,9.90
2023-01-03T23:32:43.356Z,7.05
2023-01-03T23:37:15.488Z,8.60
2023-01-03T23:41:42.253Z,9.93
2023-01-03T23:46:16.990Z,7.32
2023-01-03T23:50:48.737Z,10.07
2023-01-03T23:55:13.194Z,8.48
2023-01-03T23:59:42.063Z,13.70
